Time;durP1;ratioP1;P1;durP2;ratioP2;P2;SDS_P1;SDS_P2;PMS_P1;PMS_P2;Temp;Humidity;BMP_temperature;BMP_pressure;BME280_temperature;BME280_humidity;BME280_pressure;Samples;Min_cycle;Max_cycle;Signal;HPM_P1;HPM_P2
2021/07/29 00:00:57;;;;;;;3.92;0.93;;;14.00;75.10;;;;;;5078872;28;20029;-66
2021/07/29 00:03:23;;;;;;;5.13;1.52;;;13.90;74.70;;;;;;5080971;28;20043;-65
2021/07/29 00:05:50;;;;;;;4.85;1.25;;;14.00;75.10;;;;;;5081070;28;20028;-67
2021/07/29 00:08:20;;;;;;;3.67;0.75;;;14.00;75.10;;;;;;5077697;28;20017;-67
2021/07/29 00:10:48;;;;;;;3.85;0.90;;;14.00;75.30;;;;;;5079712;28;20024;-67
2021/07/29 00:13:16;;;;;;;6.28;1.10;;;14.00;75.10;;;;;;5076956;28;20050;-67
2021/07/29 00:15:43;;;;;;;4.97;1.00;;;14.00;75.10;;;;;;5081340;28;20107;-67
2021/07/29 00:20:39;;;;;;;7.05;1.50;;;14.10;75.00;;;;;;5079488;28;20013;-67
2021/07/29 00:23:06;;;;;;;4.32;1.00;;;14.10;75.00;;;;;;5078356;28;20379;-68
2021/07/29 00:25:32;;;;;;;5.70;1.05;;;14.10;75.10;;;;;;5078071;28;20067;-67
2021/07/29 00:27:59;;;;;;;7.30;1.80;;;14.10;74.90;;;;;;5078566;28;20016;-68
2021/07/29 00:30:26;;;;;;;2.97;0.90;;;14.10;74.80;;;;;;5074264;28;20028;-66
2021/07/29 00:32:54;;;;;;;3.72;1.30;;;14.10;75.10;;;;;;5076786;28;20479;-67
2021/07/29 00:35:21;;;;;;;2.42;0.60;;;14.10;74.90;;;;;;5077487;28;20334;-67
2021/07/29 00:37:51;;;;;;;3.97;1.83;;;14.10;74.90;;;;;;5074929;28;20017;-67
2021/07/29 00:40:22;;;;;;;4.90;1.40;;;14.00;74.90;;;;;;5077835;28;20498;-68
2021/07/29 00:42:49;;;;;;;3.78;1.08;;;14.10;75.10;;;;;;5077960;28;20136;-67
2021/07/29 00:45:15;;;;;;;7.55;1.90;;;14.10;75.10;;;;;;5075694;28;20111;-67
2021/07/29 00:47:43;;;;;;;2.63;1.13;;;14.10;75.60;;;;;;5073666;28;20063;-66
2021/07/29 00:50:11;;;;;;;4.70;1.00;;;14.10;74.90;;;;;;5074997;28;20108;-66
2021/07/29 00:52:39;;;;;;;10.35;1.30;;;14.10;75.10;;;;;;5078295;28;20020;-68
2021/07/29 00:55:07;;;;;;;2.10;0.95;;;14.10;75.10;;;;;;5073656;28;20475;-66
2021/07/29 00:57:36;;;;;;;8.02;1.80;;;14.10;74.90;;;;;;5075023;28;20025;-67
2021/07/29 01:00:04;;;;;;;3.35;1.15;;;14.00;74.90;;;;;;5074887;28;20098;-66
2021/07/29 01:02:31;;;;;;;7.32;1.13;;;14.10;75.10;;;;;;5075807;28;20016;-68
2021/07/29 01:04:57;;;;;;;4.10;1.00;;;14.10;75.10;;;;;;5074519;28;20071;-68
2021/07/29 01:07:24;;;;;;;2.78;1.27;;;14.10;74.80;;;;;;5073331;28;20021;-65
2021/07/29 01:09:51;;;;;;;2.17;0.80;;;14.10;74.90;;;;;;5076237;28;20112;-67
2021/07/29 01:12:17;;;;;;;7.10;0.98;;;14.10;74.80;;;;;;5075445;28;20029;-68
2021/07/29 01:14:45;;;;;;;2.10;0.65;;;14.10;74.80;;;;;;5074301;28;20101;-67
2021/07/29 01:17:12;;;;;;;10.10;1.65;;;14.10;74.50;;;;;;5074961;28;20028;-67
2021/07/29 01:19:39;;;;;;;5.18;1.25;;;14.00;74.50;;;;;;5076476;28;20020;-67
2021/07/29 01:22:05;;;;;;;4.35;1.60;;;14.10;75.30;;;;;;5071784;28;20130;-67
2021/07/29 01:24:32;;;;;;;4.47;1.15;;;14.10;74.70;;;;;;5075517;28;20013;-65
2021/07/29 01:26:58;;;;;;;2.33;0.98;;;14.10;74.40;;;;;;5070921;28;20024;-67
2021/07/29 01:30:04;;;;;;;6.50;0.98;;;14.10;74.40;;;;;;5071144;28;20467;-66
2021/07/29 01:33:10;;;;;;;10.15;1.00;;;14.10;74.50;;;;;;5076664;28;20024;-68
2021/07/29 01:35:37;;;;;;;2.90;0.95;;;14.10;74.60;;;;;;5078446;28;20064;-67
2021/07/29 01:38:03;;;;;;;4.40;0.80;;;14.10;75.40;;;;;;5072437;28;20032;-67
2021/07/29 01:40:29;;;;;;;5.57;1.33;;;14.20;74.90;;;;;;5073986;28;20024;-66
2021/07/29 01:42:56;;;;;;;7.65;1.00;;;14.20;74.70;;;;;;5072229;28;20107;-67
2021/07/29 01:45:22;;;;;;;7.63;1.63;;;14.10;75.00;;;;;;5074494;28;20017;-67
2021/07/29 01:47:49;;;;;;;5.22;2.05;;;14.10;75.60;;;;;;5074663;28;20024;-66
2021/07/29 01:50:15;;;;;;;3.90;1.02;;;14.10;75.90;;;;;;5075793;28;20077;-68
2021/07/29 01:52:42;;;;;;;7.45;1.00;;;14.10;76.20;;;;;;5077441;28;20099;-67
2021/07/29 01:55:09;;;;;;;5.65;1.95;;;14.10;76.40;;;;;;5076912;28;20065;-66
2021/07/29 01:57:37;;;;;;;6.07;2.35;;;14.10;76.50;;;;;;5076201;28;20020;-67
2021/07/29 02:00:05;;;;;;;3.10;1.52;;;14.10;76.50;;;;;;5075758;28;20059;-67
2021/07/29 02:02:32;;;;;;;5.68;1.55;;;14.10;76.80;;;;;;5078114;28;20019;-68
2021/07/29 02:05:38;;;;;;;6.60;1.50;;;14.10;76.60;;;;;;5074042;28;20399;-67
2021/07/29 02:08:44;;;;;;;8.90;0.95;;;14.00;76.60;;;;;;5072047;28;20750;-67
2021/07/29 02:11:52;;;;;;;9.00;1.13;;;14.00;76.90;;;;;;5074435;28;20096;-66
2021/07/29 02:14:22;;;;;;;3.85;1.58;;;14.00;77.90;;;;;;5073668;28;20030;-68
2021/07/29 02:16:50;;;;;;;5.60;1.05;;;14.00;77.20;;;;;;5072801;28;20027;-68
2021/07/29 02:19:16;;;;;;;10.23;1.40;;;14.00;77.40;;;;;;5074511;28;20058;-68
2021/07/29 02:21:44;;;;;;;5.63;1.88;;;14.00;77.60;;;;;;5074987;28;20424;-68
2021/07/29 02:24:11;;;;;;;4.68;1.10;;;14.00;77.90;;;;;;5075863;28;20021;-68
2021/07/29 02:26:38;;;;;;;8.55;1.27;;;14.00;78.10;;;;;;5073062;28;20130;-67
2021/07/29 02:29:05;;;;;;;6.15;1.10;;;14.00;78.00;;;;;;5075208;28;20025;-67
2021/07/29 02:31:31;;;;;;;3.88;2.13;;;14.00;78.30;;;;;;5075245;28;20020;-68
2021/07/29 02:33:58;;;;;;;4.50;1.25;;;14.00;78.30;;;;;;5074678;28;20016;-68
2021/07/29 02:36:24;;;;;;;12.77;2.17;;;14.00;78.10;;;;;;5075630;28;20074;-67
2021/07/29 02:38:51;;;;;;;7.63;2.25;;;14.00;78.40;;;;;;5074854;28;20046;-68
2021/07/29 02:41:19;;;;;;;4.63;1.10;;;14.00;78.50;;;;;;5073407;28;20559;-67
2021/07/29 02:43:46;;;;;;;6.38;1.40;;;14.00;78.50;;;;;;5072770;28;20111;-66
2021/07/29 02:46:12;;;;;;;5.22;1.48;;;14.00;78.40;;;;;;5074237;28;20029;-68
2021/07/29 02:48:39;;;;;;;5.45;1.50;;;14.00;78.30;;;;;;5069885;28;20048;-66
2021/07/29 02:51:05;;;;;;;7.88;2.25;;;14.00;78.40;;;;;;5072888;28;20451;-67
2021/07/29 02:53:33;;;;;;;4.15;2.00;;;14.00;78.50;;;;;;5074868;28;20046;-68
2021/07/29 02:56:00;;;;;;;9.07;2.20;;;14.00;78.50;;;;;;5076557;28;20020;-67
2021/07/29 02:58:26;;;;;;;6.95;1.17;;;14.00;78.80;;;;;;5054296;28;20111;-67
2021/07/29 03:00:53;;;;;;;3.88;1.20;;;14.00;78.80;;;;;;5073597;28;20020;-67
2021/07/29 03:03:20;;;;;;;5.03;1.15;;;14.00;78.70;;;;;;5072077;28;20115;-67
2021/07/29 03:05:47;;;;;;;7.07;1.65;;;14.00;78.80;;;;;;5072853;28;20415;-67
2021/07/29 03:08:13;;;;;;;8.65;1.70;;;14.00;78.80;;;;;;5073332;28;20766;-67
2021/07/29 03:10:39;;;;;;;6.53;1.60;;;14.00;79.00;;;;;;5072313;28;20020;-67
2021/07/29 03:13:06;;;;;;;6.75;1.17;;;14.00;79.00;;;;;;5071121;28;20112;-67
2021/07/29 03:15:33;;;;;;;5.32;1.50;;;14.00;78.90;;;;;;5073353;28;20009;-66
2021/07/29 03:17:59;;;;;;;7.93;1.48;;;14.00;78.90;;;;;;5075550;28;20031;-66
2021/07/29 03:20:26;;;;;;;46.53;29.30;;;14.00;79.20;;;;;;5073286;28;20108;-66
2021/07/29 03:22:53;;;;;;;161.63;121.70;;;14.00;79.60;;;;;;5074836;28;20020;-66
2021/07/29 03:25:19;;;;;;;54.50;35.45;;;14.00;79.70;;;;;;5057692;28;20051;-66
2021/07/29 03:27:46;;;;;;;14.30;7.90;;;14.10;80.10;;;;;;5073124;28;20024;-66
2021/07/29 03:30:12;;;;;;;7.20;2.20;;;14.10;80.10;;;;;;5073630;28;20016;-66
2021/07/29 03:32:39;;;;;;;6.75;2.78;;;14.10;80.20;;;;;;5073502;28;20025;-67
2021/07/29 03:35:06;;;;;;;5.43;1.90;;;14.10;80.30;;;;;;5073178;28;20020;-65
2021/07/29 03:37:32;;;;;;;8.40;1.63;;;14.10;80.70;;;;;;5073606;28;20029;-66
2021/07/29 03:40:04;;;;;;;6.32;1.75;;;14.10;81.20;;;;;;5073797;28;20016;-66
2021/07/29 03:42:34;;;;;;;9.77;2.33;;;14.10;81.40;;;;;;5073191;28;20020;-66
2021/07/29 03:45:01;;;;;;;6.95;2.65;;;14.10;81.90;;;;;;5070668;28;20048;-65
2021/07/29 03:47:27;;;;;;;8.75;3.03;;;14.00;82.30;;;;;;5071694;28;20020;-69
2021/07/29 03:49:54;;;;;;;5.85;1.77;;;14.00;82.60;;;;;;5053677;28;20107;-65
2021/07/29 03:52:21;;;;;;;10.85;2.80;;;14.00;83.20;;;;;;5076385;28;20023;-65
2021/07/29 03:54:53;;;;;;;10.38;2.13;;;13.90;83.50;;;;;;5072372;28;20020;-65
2021/07/29 03:57:23;;;;;;;9.52;2.60;;;13.90;83.70;;;;;;5074228;28;20020;-67
2021/07/29 03:59:50;;;;;;;4.85;1.63;;;13.80;83.50;;;;;;5073026;28;20074;-69
2021/07/29 04:02:16;;;;;;;5.75;2.42;;;13.80;83.90;;;;;;5073045;28;20809;-68
2021/07/29 04:04:43;;;;;;;151.25;107.18;;;13.80;84.40;;;;;;5077513;28;20522;-67
2021/07/29 04:07:10;;;;;;;41.63;27.15;;;13.80;85.00;;;;;;5076163;28;20024;-69
2021/07/29 04:09:36;;;;;;;19.02;10.40;;;13.90;85.30;;;;;;5075614;28;20027;-67
2021/07/29 04:12:03;;;;;;;5.30;2.22;;;13.80;85.50;;;;;;5059475;28;20024;-67
2021/07/29 04:14:30;;;;;;;10.10;2.25;;;13.80;85.80;;;;;;5079507;28;20092;-68
2021/07/29 04:16:56;;;;;;;11.52;2.00;;;13.80;86.20;;;;;;5073904;28;20054;-68
2021/07/29 04:19:23;;;;;;;7.55;2.00;;;13.80;86.20;;;;;;5077420;28;20106;-68
2021/07/29 04:21:50;;;;;;;6.85;1.98;;;13.80;86.10;;;;;;5077878;28;20698;-68
2021/07/29 04:24:56;;;;;;;8.73;1.70;;;13.80;86.30;;;;;;5075946;28;20098;-66
2021/07/29 04:28:02;;;;;;;5.22;2.03;;;13.80;85.90;;;;;;5075811;28;20078;-68
2021/07/29 04:31:09;;;;;;;4.35;1.67;;;13.80;85.90;;;;;;5075695;28;20027;-68
2021/07/29 04:34:15;;;;;;;6.95;1.85;;;13.80;86.20;;;;;;5079940;28;20514;-67
2021/07/29 04:37:21;;;;;;;3.80;1.15;;;13.80;86.40;;;;;;5074243;28;20633;-68
2021/07/29 04:39:47;;;;;;;34.15;17.80;;;13.80;86.40;;;;;;5072829;28;20483;-69
2021/07/29 04:42:22;;;;;;;9.25;5.20;;;13.80;87.00;;;;;;5070316;28;20127;-68
2021/07/29 04:44:49;;;;;;;9.98;3.63;;;13.80;86.60;;;;;;5052532;28;20028;-67
2021/07/29 04:47:16;;;;;;;7.93;3.28;;;13.80;86.60;;;;;;5060009;28;20036;-68
2021/07/29 04:49:43;;;;;;;6.95;2.45;;;13.80;86.80;;;;;;5076340;28;20573;-68
2021/07/29 04:52:10;;;;;;;5.05;1.90;;;13.90;86.90;;;;;;5076629;28;20131;-67
2021/07/29 04:55:16;;;;;;;9.98;2.17;;;13.90;86.90;;;;;;5076441;28;20542;-69
2021/07/29 04:58:22;;;;;;;9.05;2.28;;;13.90;86.60;;;;;;5071352;28;20107;-69
2021/07/29 05:00:48;;;;;;;4.88;1.40;;;13.90;86.70;;;;;;5072656;28;20078;-67
2021/07/29 05:03:15;;;;;;;7.07;1.50;;;13.80;86.80;;;;;;5081772;28;20040;-68
2021/07/29 05:05:41;;;;;;;7.50;2.90;;;13.80;87.00;;;;;;5080709;28;20025;-68
2021/07/29 05:08:47;;;;;;;5.97;2.30;;;13.80;87.20;;;;;;5080646;28;20021;-67
2021/07/29 05:11:53;;;;;;;9.45;2.42;;;13.80;87.40;;;;;;5069786;28;20104;-68
2021/07/29 05:14:20;;;;;;;5.80;2.17;;;13.70;87.50;;;;;;5071428;28;20474;-68
2021/07/29 05:16:46;;;;;;;9.43;1.83;;;13.70;87.60;;;;;;5070231;28;20460;-68
2021/07/29 05:19:13;;;;;;;4.97;1.95;;;13.70;88.40;;;;;;5072104;28;20410;-68
2021/07/29 05:21:42;;;;;;;8.32;2.20;;;13.70;88.50;;;;;;5073942;28;20398;-68
2021/07/29 05:24:08;;;;;;;5.78;1.70;;;13.70;88.80;;;;;;5070306;28;20659;-68
2021/07/29 05:26:35;;;;;;;9.13;1.95;;;13.70;88.70;;;;;;5072855;28;20062;-67
2021/07/29 05:29:02;;;;;;;6.55;2.30;;;13.70;88.70;;;;;;5071578;28;20020;-68
2021/07/29 05:31:28;;;;;;;5.95;1.65;;;13.70;88.80;;;;;;5072048;28;20032;-68
2021/07/29 05:33:55;;;;;;;4.68;1.50;;;13.70;89.30;;;;;;5072995;28;20016;-68
2021/07/29 05:36:22;;;;;;;9.48;2.20;;;13.70;90.20;;;;;;5069980;28;20420;-68
2021/07/29 05:38:48;;;;;;;7.15;2.50;;;13.70;90.10;;;;;;5074119;28;20104;-68
2021/07/29 05:41:15;;;;;;;12.40;2.45;;;13.70;90.20;;;;;;5074170;28;20479;-67
2021/07/29 05:43:41;;;;;;;7.90;2.55;;;13.70;90.20;;;;;;5074405;28;20462;-68
2021/07/29 05:46:09;;;;;;;5.93;2.15;;;13.70;90.20;;;;;;5075599;28;20032;-68
2021/07/29 05:48:37;;;;;;;9.77;3.75;;;13.70;90.40;;;;;;5073923;28;20039;-68
2021/07/29 05:51:04;;;;;;;6.30;2.50;;;13.70;90.60;;;;;;5074376;28;20103;-68
2021/07/29 05:53:31;;;;;;;9.27;2.25;;;13.70;90.70;;;;;;5075876;28;20017;-68
2021/07/29 05:55:59;;;;;;;6.72;2.25;;;13.60;90.70;;;;;;5076199;28;20375;-68
2021/07/29 05:58:26;;;;;;;6.85;2.42;;;13.70;90.90;;;;;;5076257;28;20028;-68
2021/07/29 06:00:53;;;;;;;5.80;2.00;;;13.70;90.90;;;;;;5074477;28;20113;-68
2021/07/29 06:03:20;;;;;;;4.30;1.63;;;13.70;90.90;;;;;;5072347;28;20048;-68
2021/07/29 06:05:46;;;;;;;4.30;1.42;;;13.70;90.80;;;;;;5074824;28;20074;-68
2021/07/29 06:08:12;;;;;;;8.23;2.58;;;13.70;90.80;;;;;;5072997;28;20012;-68
2021/07/29 06:10:40;;;;;;;7.63;1.77;;;13.70;90.80;;;;;;5074276;28;20020;-68
2021/07/29 06:13:07;;;;;;;12.55;2.60;;;13.70;90.90;;;;;;5073576;28;20108;-68
2021/07/29 06:15:33;;;;;;;7.75;2.20;;;13.70;91.00;;;;;;5076349;28;20996;-69
2021/07/29 06:18:01;;;;;;;7.15;2.25;;;13.70;91.00;;;;;;5075496;28;20020;-72
2021/07/29 06:20:29;;;;;;;16.52;7.35;;;13.70;91.10;;;;;;5074464;28;20423;-68
2021/07/29 06:22:55;;;;;;;51.47;32.33;;;13.70;91.20;;;;;;5074007;28;20032;-70
2021/07/29 06:25:22;;;;;;;39.22;25.98;;;13.70;91.40;;;;;;5068529;28;20035;-71
2021/07/29 06:28:33;;;;;;;12.38;5.85;;;13.80;91.40;;;;;;5072026;28;20031;-71
2021/07/29 06:31:00;;;;;;;6.93;2.38;;;13.80;91.30;;;;;;5072054;28;20057;-70
2021/07/29 06:33:26;;;;;;;7.57;2.15;;;13.80;91.00;;;;;;5071858;28;20438;-70
2021/07/29 06:35:53;;;;;;;8.65;3.17;;;13.70;91.10;;;;;;5072204;28;20021;-71
2021/07/29 06:38:20;;;;;;;8.45;1.98;;;13.80;91.20;;;;;;5072267;28;20487;-71
2021/07/29 06:40:46;;;;;;;9.93;3.55;;;13.70;91.30;;;;;;5072741;28;20020;-71
2021/07/29 06:43:13;;;;;;;7.47;2.92;;;13.70;91.50;;;;;;5073936;28;20103;-70
2021/07/29 06:45:39;;;;;;;7.63;2.28;;;13.70;91.70;;;;;;5073789;28;20036;-70
2021/07/29 06:48:06;;;;;;;7.63;1.98;;;13.70;91.70;;;;;;5075935;28;20027;-70
2021/07/29 06:50:32;;;;;;;7.15;2.10;;;13.80;91.80;;;;;;5071786;28;20511;-69
2021/07/29 06:52:59;;;;;;;9.32;3.42;;;13.80;91.80;;;;;;5077703;28;20742;-68
2021/07/29 06:55:25;;;;;;;6.15;2.50;;;13.80;91.80;;;;;;5072091;28;20024;-68
2021/07/29 06:57:52;;;;;;;6.38;2.88;;;13.90;91.80;;;;;;5075850;28;20031;-69
2021/07/29 07:00:20;;;;;;;9.20;3.17;;;13.90;91.80;;;;;;5074814;28;20031;-66
2021/07/29 07:02:47;;;;;;;72.38;50.83;;;13.90;91.80;;;;;;5072218;28;20071;-66
2021/07/29 07:05:13;;;;;;;127.85;82.00;;;14.00;91.90;;;;;;5072398;28;20052;-69
2021/07/29 07:07:40;;;;;;;45.08;25.45;;;13.90;91.90;;;;;;5075288;28;20024;-71
2021/07/29 07:10:06;;;;;;;13.55;3.78;;;13.90;91.80;;;;;;5075576;28;20037;-69
2021/07/29 07:12:34;;;;;;;16.00;2.95;;;13.90;91.80;;;;;;5074693;28;20016;-70
2021/07/29 07:15:00;;;;;;;8.68;2.92;;;13.90;91.90;;;;;;5073860;28;20024;-69
2021/07/29 07:17:27;;;;;;;5.25;2.13;;;13.90;92.00;;;;;;5074174;28;20138;-68
2021/07/29 07:19:58;;;;;;;6.55;2.38;;;13.90;92.00;;;;;;5075407;28;20028;-71
2021/07/29 07:22:24;;;;;;;7.60;2.33;;;13.90;92.00;;;;;;5073575;28;20044;-70
2021/07/29 07:24:51;;;;;;;4.82;2.30;;;13.90;92.10;;;;;;5075291;28;20016;-70
2021/07/29 07:27:17;;;;;;;6.75;2.88;;;13.90;92.10;;;;;;5077777;28;20384;-70
2021/07/29 07:29:43;;;;;;;7.38;2.60;;;13.90;92.20;;;;;;5078552;28;20028;-70
2021/07/29 07:32:10;;;;;;;5.30;2.20;;;13.90;92.30;;;;;;5074958;28;20029;-71
2021/07/29 07:34:36;;;;;;;5.28;2.47;;;13.90;92.30;;;;;;5076106;28;20891;-71
2021/07/29 07:37:03;;;;;;;6.43;2.60;;;14.00;92.40;;;;;;5072540;28;20039;-70
2021/07/29 07:39:30;;;;;;;7.18;2.25;;;14.00;92.40;;;;;;5075714;28;20087;-71
2021/07/29 07:41:56;;;;;;;6.30;2.55;;;14.00;92.40;;;;;;5077174;28;20021;-70
2021/07/29 07:44:23;;;;;;;6.47;2.17;;;14.00;92.30;;;;;;5079414;28;20483;-69
2021/07/29 07:46:49;;;;;;;6.10;2.47;;;14.00;92.30;;;;;;5076746;28;20115;-70
2021/07/29 07:49:16;;;;;;;7.65;1.80;;;14.00;92.30;;;;;;5078295;28;20089;-68
2021/07/29 07:51:42;;;;;;;7.68;2.40;;;14.00;92.30;;;;;;5064951;28;20434;-72
2021/07/29 07:54:09;;;;;;;50.97;38.05;;;14.00;92.20;;;;;;5079167;28;20062;-70
2021/07/29 07:56:43;;;;;;;28.10;18.95;;;14.00;92.30;;;;;;5076764;28;20032;-69
2021/07/29 07:59:50;;;;;;;17.48;10.93;;;14.00;92.30;;;;;;5076098;28;20461;-68
2021/07/29 08:02:56;;;;;;;6.40;2.45;;;14.10;92.30;;;;;;5075600;28;20074;-70
2021/07/29 08:06:03;;;;;;;10.45;2.95;;;14.10;92.40;;;;;;5078647;28;20098;-70
2021/07/29 08:09:09;;;;;;;6.40;2.85;;;14.10;92.40;;;;;;5077090;28;20067;-71
2021/07/29 08:12:15;;;;;;;5.22;2.38;;;14.00;92.50;;;;;;5081405;28;20039;-71
2021/07/29 08:15:21;;;;;;;7.03;1.70;;;14.10;92.90;;;;;;5078313;28;20025;-71
2021/07/29 08:17:47;;;;;;;5.70;1.90;;;14.10;92.50;;;;;;5074590;28;20078;-70
2021/07/29 08:20:14;;;;;;;6.53;2.25;;;14.10;92.60;;;;;;5079628;28;20036;-71
2021/07/29 08:22:40;;;;;;;5.95;2.33;;;14.10;92.60;;;;;;5078738;28;20031;-69
2021/07/29 08:25:07;;;;;;;5.88;2.17;;;14.00;92.50;;;;;;5075690;28;20078;-70
2021/07/29 08:27:34;;;;;;;11.57;1.90;;;14.10;92.70;;;;;;5081466;28;20023;-70
2021/07/29 08:30:01;;;;;;;7.38;2.90;;;14.10;92.70;;;;;;5079274;28;20490;-69
2021/07/29 08:32:29;;;;;;;4.45;1.92;;;14.00;92.70;;;;;;5076286;28;20025;-70
2021/07/29 08:34:56;;;;;;;6.50;2.25;;;14.00;92.80;;;;;;5074419;28;20021;-71
2021/07/29 08:37:23;;;;;;;7.40;2.50;;;14.00;92.80;;;;;;5076412;28;20024;-67
2021/07/29 08:39:50;;;;;;;10.40;2.33;;;14.00;92.90;;;;;;5078681;28;20020;-70
2021/07/29 08:42:16;;;;;;;4.40;1.90;;;14.00;92.90;;;;;;5072163;28;20054;-71
2021/07/29 08:44:43;;;;;;;5.75;2.08;;;14.10;93.00;;;;;;5078397;28;20103;-69
2021/07/29 08:47:10;;;;;;;12.02;2.88;;;14.10;92.90;;;;;;5076617;28;20033;-72
2021/07/29 08:49:43;;;;;;;9.15;1.92;;;14.10;93.00;;;;;;5080330;28;20039;-68
2021/07/29 08:52:09;;;;;;;13.82;7.80;;;14.10;93.00;;;;;;5075725;28;20021;-69
2021/07/29 08:54:38;;;;;;;17.63;9.70;;;14.10;93.00;;;;;;5078128;28;20467;-67
2021/07/29 08:57:05;;;;;;;8.38;4.15;;;14.20;93.10;;;;;;5078062;28;20043;-68
2021/07/29 08:59:31;;;;;;;6.43;2.35;;;14.20;93.10;;;;;;5076465;28;20455;-68
2021/07/29 09:02:00;;;;;;;7.88;2.72;;;14.20;93.00;;;;;;5074757;28;20085;-68
2021/07/29 09:04:26;;;;;;;6.97;2.78;;;14.20;93.10;;;;;;5075103;28;20052;-68
2021/07/29 09:07:02;;;;;;;6.50;2.72;;;14.10;93.00;;;;;;5077684;28;20032;-68
2021/07/29 09:10:24;;;;;;;7.57;2.90;;;14.20;93.10;;;;;;5074006;28;20016;-68
2021/07/29 09:13:45;;;;;;;7.80;2.75;;;14.20;93.20;;;;;;5078476;28;20118;-68
2021/07/29 09:16:51;;;;;;;3.35;2.08;;;14.30;93.30;;;;;;5078740;28;20086;-68
2021/07/29 09:19:38;;;;;;;6.82;2.80;;;14.40;93.40;;;;;;5074456;28;20044;-68
2021/07/29 09:22:52;;;;;;;7.00;2.92;;;14.40;93.50;;;;;;5072513;28;20109;-67
2021/07/29 09:25:59;;;;;;;9.90;3.88;;;14.50;93.70;;;;;;5074963;28;20024;-67
2021/07/29 09:29:17;;;;;;;4.03;1.95;;;14.50;93.40;;;;;;5082120;28;20508;-67
2021/07/29 09:32:23;;;;;;;6.85;3.30;;;14.50;93.30;;;;;;5074846;28;20510;-67
2021/07/29 09:35:29;;;;;;;5.45;3.05;;;14.60;93.40;;;;;;5071457;28;20030;-67
2021/07/29 09:38:47;;;;;;;7.55;2.08;;;14.50;93.30;;;;;;5076904;28;20107;-67
2021/07/29 09:41:58;;;;;;;4.97;2.53;;;14.50;93.30;;;;;;5078417;28;20036;-68
2021/07/29 09:44:45;;;;;;;5.95;2.42;;;14.50;93.30;;;;;;5073900;28;20624;-69
2021/07/29 09:47:12;;;;;;;4.68;1.50;;;14.50;93.30;;;;;;5075280;28;20098;-67
2021/07/29 09:49:41;;;;;;;5.22;1.63;;;14.50;93.30;;;;;;5080053;28;20020;-68
2021/07/29 09:52:08;;;;;;;6.75;1.70;;;14.40;93.00;;;;;;5075106;28;20020;-69
2021/07/29 09:54:38;;;;;;;5.22;1.20;;;14.40;93.00;;;;;;5072646;28;20045;-70
2021/07/29 09:57:07;;;;;;;6.10;1.67;;;14.40;93.00;;;;;;5076542;28;20054;-69
2021/07/29 09:59:34;;;;;;;1.75;1.00;;;14.30;92.80;;;;;;5077720;28;20376;-70
2021/07/29 10:02:04;;;;;;;3.75;1.17;;;14.30;92.60;;;;;;5075824;28;20368;-69
2021/07/29 10:04:59;;;;;;;2.92;1.25;;;14.30;92.30;;;;;;5071183;28;20045;-68
2021/07/29 10:07:28;;;;;;;7.55;1.08;;;14.20;92.10;;;;;;5074282;28;20510;-68
2021/07/29 10:09:56;;;;;;;13.57;10.48;;;14.10;92.00;;;;;;5054025;28;20107;-69
2021/07/29 10:12:27;;;;;;;29.20;19.45;;;14.10;92.10;;;;;;5071754;28;20028;-68
2021/07/29 10:14:58;;;;;;;8.68;3.67;;;14.20;92.20;;;;;;5071986;28;20035;-67
2021/07/29 10:17:37;;;;;;;7.80;1.75;;;14.20;92.20;;;;;;5073588;28;20016;-69
2021/07/29 10:20:23;;;;;;;4.20;1.67;;;14.20;92.30;;;;;;5077264;28;20024;-68
2021/07/29 10:23:10;;;;;;;5.05;1.23;;;14.20;92.60;;;;;;5072723;28;21096;-69
2021/07/29 10:26:03;;;;;;;4.75;1.48;;;14.20;92.70;;;;;;5073144;28;20055;-67
2021/07/29 10:28:40;;;;;;;4.00;0.88;;;14.30;92.70;;;;;;5077135;28;20104;-68
2021/07/29 10:31:08;;;;;;;4.72;1.05;;;14.30;92.60;;;;;;5068723;28;20127;-68
2021/07/29 10:33:34;;;;;;;4.45;1.02;;;14.30;92.60;;;;;;5074182;28;20016;-68
2021/07/29 10:36:03;;;;;;;6.22;1.10;;;14.30;92.60;;;;;;5072349;28;20025;-68
2021/07/29 10:38:39;;;;;;;2.72;0.80;;;14.30;92.50;;;;;;5077731;28;20024;-68
2021/07/29 10:41:34;;;;;;;1.70;0.85;;;14.30;92.50;;;;;;5074620;28;20013;-68
2021/07/29 10:44:03;;;;;;;3.13;0.73;;;14.40;92.50;;;;;;5070160;28;20103;-67
2021/07/29 10:46:54;;;;;;;3.80;1.10;;;14.40;92.50;;;;;;5073328;28;20036;-67
2021/07/29 10:49:21;;;;;;;2.53;1.13;;;14.40;92.50;;;;;;5075010;28;20138;-66
2021/07/29 10:52:08;;;;;;;4.07;1.60;;;14.50;92.60;;;;;;5074282;28;20012;-70
2021/07/29 10:54:40;;;;;;;12.43;7.30;;;14.50;92.60;;;;;;5076692;28;20471;-70
2021/07/29 10:57:09;;;;;;;11.18;6.75;;;14.60;92.70;;;;;;5074953;28;20016;-70
2021/07/29 10:59:36;;;;;;;5.60;1.73;;;14.70;92.60;;;;;;5071130;28;20020;-72
2021/07/29 11:02:15;;;;;;;4.95;1.75;;;14.70;92.50;;;;;;5073438;28;20052;-71
2021/07/29 11:04:56;;;;;;;4.25;1.80;;;14.70;92.50;;;;;;5072358;28;20040;-70
2021/07/29 11:07:22;;;;;;;8.70;1.88;;;14.70;92.50;;;;;;5077531;28;20036;-68
2021/07/29 11:10:08;;;;;;;6.43;1.88;;;14.70;92.60;;;;;;5073246;28;20039;-70
2021/07/29 11:12:35;;;;;;;5.63;1.90;;;14.80;92.60;;;;;;5075087;28;20043;-70
2021/07/29 11:15:06;;;;;;;7.43;1.95;;;14.80;92.60;;;;;;5072603;28;20020;-67
2021/07/29 11:17:33;;;;;;;7.38;1.38;;;14.80;92.40;;;;;;5075505;28;20022;-70
2021/07/29 11:20:00;;;;;;;2.80;1.13;;;14.80;92.00;;;;;;5072669;28;20020;-68
2021/07/29 11:22:26;;;;;;;2.75;1.40;;;14.70;91.90;;;;;;5069773;28;20024;-71
2021/07/29 11:24:52;;;;;;;7.35;1.75;;;14.80;91.80;;;;;;5078154;28;20020;-70
2021/07/29 11:27:31;;;;;;;2.88;2.05;;;14.70;91.70;;;;;;5071986;28;20041;-72
2021/07/29 11:30:02;;;;;;;5.00;1.45;;;14.70;91.70;;;;;;5076431;28;20153;-69
2021/07/29 11:32:38;;;;;;;8.18;2.15;;;14.70;91.80;;;;;;5076583;28;20024;-71
2021/07/29 11:35:04;;;;;;;;;;;14.70;91.80;;;;;;5074030;28;20103;-69
2021/07/29 11:37:49;;;;;;;7.15;5.05;;;14.60;91.70;;;;;;5070059;28;20009;-68
2021/07/29 11:40:25;;;;;;;21.05;12.15;;;14.70;91.80;;;;;;5074398;28;20032;-70
2021/07/29 11:42:51;;;;;;;;;;;14.60;91.90;;;;;;5073607;28;20032;-70
2021/07/29 11:45:33;;;;;;;21.27;12.20;;;14.70;92.00;;;;;;5072206;28;19944;-68
2021/07/29 11:48:00;;;;;;;8.05;2.85;;;14.70;92.20;;;;;;5073955;28;20025;-71
2021/07/29 11:50:32;;;;;;;7.53;2.47;;;14.70;92.30;;;;;;5069134;28;20097;-71
2021/07/29 11:52:59;;;;;;;4.00;2.03;;;14.70;92.40;;;;;;5072550;28;20028;-71
2021/07/29 11:55:25;;;;;;;7.30;2.08;;;14.70;92.50;;;;;;5070067;28;20023;-71
2021/07/29 11:57:53;;;;;;;9.45;2.35;;;14.70;92.70;;;;;;5068407;28;20032;-71
2021/07/29 12:00:29;;;;;;;15.00;5.05;;;14.70;92.80;;;;;;5070372;28;20056;-70
2021/07/29 12:03:00;;;;;;;5.88;2.13;;;14.70;92.90;;;;;;5072344;28;20069;-71
2021/07/29 12:05:28;;;;;;;8.65;2.47;;;14.80;92.90;;;;;;5073437;28;20029;-70
2021/07/29 12:07:55;;;;;;;4.95;1.60;;;14.80;92.90;;;;;;5071399;28;20368;-68
2021/07/29 12:10:26;;;;;;;5.00;2.17;;;14.80;92.90;;;;;;5069855;28;20831;-70
2021/07/29 12:12:53;;;;;;;6.70;1.88;;;14.80;92.90;;;;;;5077234;28;20027;-69
2021/07/29 12:15:20;;;;;;;4.28;2.53;;;14.80;92.80;;;;;;5073750;28;20021;-71
2021/07/29 12:17:47;;;;;;;7.85;2.17;;;14.80;92.70;;;;;;5075271;28;20506;-70
2021/07/29 12:20:15;;;;;;;5.68;2.38;;;14.80;92.80;;;;;;5073527;28;20474;-72
2021/07/29 12:22:43;;;;;;;5.15;1.83;;;14.70;92.90;;;;;;5073051;28;20517;-71
2021/07/29 12:25:31;;;;;;;5.18;1.75;;;14.80;93.00;;;;;;5072404;28;20021;-69
2021/07/29 12:27:58;;;;;;;5.53;1.70;;;14.80;93.10;;;;;;5075120;28;20074;-70
2021/07/29 12:30:35;;;;;;;5.63;1.35;;;14.80;93.20;;;;;;5073800;28;20024;-71
2021/07/29 12:33:17;;;;;;;5.63;1.42;;;14.90;93.30;;;;;;5073452;28;20021;-71
2021/07/29 12:35:57;;;;;;;12.43;7.60;;;14.90;93.30;;;;;;5073752;28;20032;-70
2021/07/29 12:38:34;;;;;;;12.73;7.25;;;14.80;93.30;;;;;;5074460;28;20499;-71
2021/07/29 12:41:01;;;;;;;4.38;2.25;;;14.90;93.30;;;;;;5074688;28;20035;-72
2021/07/29 12:44:07;;;;;;;3.10;1.50;;;14.90;93.20;;;;;;5070165;28;20031;-72
2021/07/29 12:47:13;;;;;;;6.35;1.08;;;14.90;93.10;;;;;;5075954;28;20063;-71
2021/07/29 12:50:19;;;;;;;4.55;1.23;;;14.80;93.10;;;;;;5070813;28;20527;-71
2021/07/29 12:53:08;;;;;;;4.70;1.50;;;14.80;93.10;;;;;;5076537;28;20048;-72
2021/07/29 12:55:39;;;;;;;5.07;1.25;;;14.80;93.10;;;;;;5078533;28;20075;-67
2021/07/29 12:58:07;;;;;;;5.50;1.83;;;14.90;93.10;;;;;;5076102;28;20039;-70
2021/07/29 13:00:38;;;;;;;4.57;2.55;;;14.90;93.10;;;;;;5077423;28;20020;-69
2021/07/29 13:03:26;;;;;;;4.18;2.35;;;14.90;93.10;;;;;;5074294;28;20077;-70
2021/07/29 13:05:56;;;;;;;8.15;2.50;;;14.90;93.20;;;;;;5076152;28;20043;-69
2021/07/29 13:08:23;;;;;;;7.50;2.25;;;14.90;93.10;;;;;;5077413;28;20479;-68
2021/07/29 13:10:50;;;;;;;8.05;2.75;;;14.90;93.10;;;;;;5075149;28;20573;-70
2021/07/29 13:13:22;;;;;;;7.40;1.67;;;14.90;92.90;;;;;;5076292;28;20068;-70
2021/07/29 13:15:49;;;;;;;5.88;2.15;;;14.90;92.90;;;;;;5078362;28;20067;-69
2021/07/29 13:18:16;;;;;;;6.50;1.98;;;14.90;92.90;;;;;;5075524;28;20058;-70